sensor_id;sensor_type;location;lat;lon;timestamp;pressure;altitude;pressure_sealevel;temperature;humidity
45731;BME280;31440;48.584;13.460;2023-05-01T00:00:26;96844.94;;;10.08;69.04
45731;BME280;31440;48.584;13.460;2023-05-01T00:03:31;96872.06;;;10.24;69.26
45731;BME280;31440;48.584;13.460;2023-05-01T00:06:36;96863.63;;;9.91;71.88
45731;BME280;31440;48.584;13.460;2023-05-01T00:09:41;96857.91;;;9.54;72.70
45731;BME280;31440;48.584;13.460;2023-05-01T00:12:45;96859.75;;;9.76;71.91
45731;BME280;31440;48.584;13.460;2023-05-01T00:15:50;96856.34;;;10.02;70.11
45731;BME280;31440;48.584;13.460;2023-05-01T00:18:55;96847.00;;;9.70;69.26
45731;BME280;31440;48.584;13.460;2023-05-01T00:22:00;96843.47;;;9.99;68.82
45731;BME280;31440;48.584;13.460;2023-05-01T00:25:05;96848.06;;;9.91;69.01
45731;BME280;31440;48.584;13.460;2023-05-01T00:28:09;96841.63;;;9.76;70.80
45731;BME280;31440;48.584;13.460;2023-05-01T00:31:14;96835.28;;;10.11;68.17
45731;BME280;31440;48.584;13.460;2023-05-01T00:34:19;96840.84;;;10.01;69.16
45731;BME280;31440;48.584;13.460;2023-05-01T00:37:23;96838.28;;;9.99;69.50
45731;BME280;31440;48.584;13.460;2023-05-01T00:40:28;96834.06;;;9.70;71.91
45731;BME280;31440;48.584;13.460;2023-05-01T00:43:33;96828.25;;;9.34;74.88
45731;BME280;31440;48.584;13.460;2023-05-01T00:49:47;96813.28;;;8.85;81.50
45731;BME280;31440;48.584;13.460;2023-05-01T00:52:53;96829.44;;;8.93;83.08
45731;BME280;31440;48.584;13.460;2023-05-01T00:55:58;96820.16;;;9.16;80.34
45731;BME280;31440;48.584;13.460;2023-05-01T00:59:02;96818.47;;;9.15;80.48
45731;BME280;31440;48.584;13.460;2023-05-01T01:02:08;96813.44;;;9.08;82.03
45731;BME280;31440;48.584;13.460;2023-05-01T01:05:12;96804.88;;;9.06;81.10
45731;BME280;31440;48.584;13.460;2023-05-01T01:08:24;96802.06;;;8.54;85.46
45731;BME280;31440;48.584;13.460;2023-05-01T01:11:32;96798.09;;;8.73;84.30
45731;BME280;31440;48.584;13.460;2023-05-01T01:14:49;96800.22;;;8.59;84.55
45731;BME280;31440;48.584;13.460;2023-05-01T01:18:07;96794.88;;;8.94;82.42
45731;BME280;31440;48.584;13.460;2023-05-01T01:21:34;96791.22;;;9.01;82.95
45731;BME280;31440;48.584;13.460;2023-05-01T01:31:41;96785.16;;;9.02;82.69
45731;BME280;31440;48.584;13.460;2023-05-01T01:34:53;96779.16;;;9.30;81.09
45731;BME280;31440;48.584;13.460;2023-05-01T01:41:12;96768.06;;;8.97;83.95
45731;BME280;31440;48.584;13.460;2023-05-01T01:44:19;96775.78;;;8.98;82.17
45731;BME280;31440;48.584;13.460;2023-05-01T01:47:27;96753.53;;;8.91;82.77
45731;BME280;31440;48.584;13.460;2023-05-01T01:50:36;96769.78;;;9.26;79.83
45731;BME280;31440;48.584;13.460;2023-05-01T01:53:45;96764.19;;;9.10;81.19
45731;BME280;31440;48.584;13.460;2023-05-01T01:56:53;96765.50;;;9.25;78.86
45731;BME280;31440;48.584;13.460;2023-05-01T01:59:59;96757.63;;;9.28;78.71
45731;BME280;31440;48.584;13.460;2023-05-01T02:03:04;96753.69;;;9.44;77.92
45731;BME280;31440;48.584;13.460;2023-05-01T02:06:10;96752.03;;;9.41;79.37
45731;BME280;31440;48.584;13.460;2023-05-01T02:09:19;96750.81;;;8.96;81.22
45731;BME280;31440;48.584;13.460;2023-05-01T02:12:25;96751.88;;;9.20;81.34
45731;BME280;31440;48.584;13.460;2023-05-01T02:15:31;96752.53;;;8.97;80.37
45731;BME280;31440;48.584;13.460;2023-05-01T02:18:38;96753.38;;;8.97;81.07
45731;BME280;31440;48.584;13.460;2023-05-01T02:21:44;96749.38;;;9.43;76.58
45731;BME280;31440;48.584;13.460;2023-05-01T02:24:49;96745.50;;;9.30;79.10
45731;BME280;31440;48.584;13.460;2023-05-01T02:27:58;96710.81;;;9.06;78.76
45731;BME280;31440;48.584;13.460;2023-05-01T02:31:04;96728.66;;;10.67;68.55
45731;BME280;31440;48.584;13.460;2023-05-01T02:34:08;96734.03;;;9.63;76.19
45731;BME280;31440;48.584;13.460;2023-05-01T02:37:13;96735.50;;;9.46;76.16
45731;BME280;31440;48.584;13.460;2023-05-01T02:40:19;96728.06;;;9.61;75.74
45731;BME280;31440;48.584;13.460;2023-05-01T02:43:26;96725.50;;;9.86;74.20
45731;BME280;31440;48.584;13.460;2023-05-01T02:46:34;96723.44;;;9.44;75.75
45731;BME280;31440;48.584;13.460;2023-05-01T02:49:42;96711.56;;;9.64;75.16
45731;BME280;31440;48.584;13.460;2023-05-01T02:52:48;96727.09;;;9.09;79.33
45731;BME280;31440;48.584;13.460;2023-05-01T02:56:04;96725.63;;;8.73;80.93
45731;BME280;31440;48.584;13.460;2023-05-01T02:59:11;96716.28;;;9.25;78.88
45731;BME280;31440;48.584;13.460;2023-05-01T03:02:15;96715.84;;;9.10;79.35
45731;BME280;31440;48.584;13.460;2023-05-01T03:05:20;96715.44;;;9.24;78.43
45731;BME280;31440;48.584;13.460;2023-05-01T03:08:24;96710.97;;;9.01;79.74
45731;BME280;31440;48.584;13.460;2023-05-01T03:11:29;96715.63;;;9.20;79.25
45731;BME280;31440;48.584;13.460;2023-05-01T03:14:33;96711.63;;;8.80;81.63
45731;BME280;31440;48.584;13.460;2023-05-01T03:20:51;96708.53;;;8.67;82.38
45731;BME280;31440;48.584;13.460;2023-05-01T03:27:02;96696.31;;;9.00;81.65
45731;BME280;31440;48.584;13.460;2023-05-01T03:30:08;96708.22;;;8.78;82.56
45731;BME280;31440;48.584;13.460;2023-05-01T03:33:16;96706.09;;;8.91;82.04
45731;BME280;31440;48.584;13.460;2023-05-01T03:36:21;96699.53;;;8.81;82.78
45731;BME280;31440;48.584;13.460;2023-05-01T03:39:30;96672.72;;;8.54;83.12
45731;BME280;31440;48.584;13.460;2023-05-01T03:42:53;96705.53;;;9.09;79.72
45731;BME280;31440;48.584;13.460;2023-05-01T03:46:00;96698.56;;;9.11;79.45
45731;BME280;31440;48.584;13.460;2023-05-01T03:49:05;96704.09;;;9.00;81.45
45731;BME280;31440;48.584;13.460;2023-05-01T03:52:16;96680.88;;;9.25;77.75
45731;BME280;31440;48.584;13.460;2023-05-01T03:58:27;96690.38;;;8.97;80.92
45731;BME280;31440;48.584;13.460;2023-05-01T04:01:32;96687.97;;;9.20;77.92
45731;BME280;31440;48.584;13.460;2023-05-01T04:04:37;96691.16;;;9.28;77.13
45731;BME280;31440;48.584;13.460;2023-05-01T04:07:43;96695.38;;;9.03;78.68
45731;BME280;31440;48.584;13.460;2023-05-01T04:10:48;96681.34;;;9.38;76.83
45731;BME280;31440;48.584;13.460;2023-05-01T04:16:58;96667.50;;;9.11;77.38
45731;BME280;31440;48.584;13.460;2023-05-01T04:20:05;96676.34;;;9.32;75.75
45731;BME280;31440;48.584;13.460;2023-05-01T04:23:10;96684.59;;;9.17;77.06
45731;BME280;31440;48.584;13.460;2023-05-01T04:26:16;96679.75;;;9.59;75.43
45731;BME280;31440;48.584;13.460;2023-05-01T04:29:21;96676.84;;;9.69;74.16
45731;BME280;31440;48.584;13.460;2023-05-01T04:32:25;96679.03;;;9.55;74.57
45731;BME280;31440;48.584;13.460;2023-05-01T04:35:30;96668.22;;;9.69;73.43
45731;BME280;31440;48.584;13.460;2023-05-01T04:38:35;96660.09;;;9.27;75.94
45731;BME280;31440;48.584;13.460;2023-05-01T04:41:40;96664.94;;;9.89;72.13
45731;BME280;31440;48.584;13.460;2023-05-01T04:44:45;96670.56;;;10.00;72.78
45731;BME280;31440;48.584;13.460;2023-05-01T04:47:51;96670.38;;;10.06;71.61
45731;BME280;31440;48.584;13.460;2023-05-01T04:50:56;96660.31;;;9.97;71.20
45731;BME280;31440;48.584;13.460;2023-05-01T04:54:04;96662.50;;;9.84;70.15
45731;BME280;31440;48.584;13.460;2023-05-01T04:57:11;96662.88;;;10.22;68.09
45731;BME280;31440;48.584;13.460;2023-05-01T05:00:18;96627.25;;;10.27;65.59
45731;BME280;31440;48.584;13.460;2023-05-01T05:03:29;96660.53;;;10.84;63.34
45731;BME280;31440;48.584;13.460;2023-05-01T05:06:34;96660.94;;;10.73;64.72
45731;BME280;31440;48.584;13.460;2023-05-01T05:09:43;96660.75;;;10.79;64.27
45731;BME280;31440;48.584;13.460;2023-05-01T05:12:47;96659.94;;;10.77;62.36
45731;BME280;31440;48.584;13.460;2023-05-01T05:15:52;96656.59;;;10.97;62.38
45731;BME280;31440;48.584;13.460;2023-05-01T05:19:01;96609.28;;;9.74;64.13
45731;BME280;31440;48.584;13.460;2023-05-01T05:22:09;96651.53;;;10.47;65.07
45731;BME280;31440;48.584;13.460;2023-05-01T05:25:34;96647.16;;;10.95;61.90
45731;BME280;31440;48.584;13.460;2023-05-01T05:28:39;96644.84;;;11.09;61.95
45731;BME280;31440;48.584;13.460;2023-05-01T05:31:44;96645.81;;;11.06;60.80
45731;BME280;31440;48.584;13.460;2023-05-01T05:34:49;96642.13;;;11.12;61.41
45731;BME280;31440;48.584;13.460;2023-05-01T05:37:55;96615.59;;;11.04;60.14
45731;BME280;31440;48.584;13.460;2023-05-01T05:41:01;96638.34;;;11.41;60.07
45731;BME280;31440;48.584;13.460;2023-05-01T05:44:07;96636.16;;;11.52;58.98
45731;BME280;31440;48.584;13.460;2023-05-01T05:47:11;96640.00;;;11.64;60.30
45731;BME280;31440;48.584;13.460;2023-05-01T05:50:16;96626.22;;;11.62;60.35
45731;BME280;31440;48.584;13.460;2023-05-01T05:53:22;96625.41;;;11.60;57.81
45731;BME280;31440;48.584;13.460;2023-05-01T05:56:30;96637.84;;;11.53;59.50
45731;BME280;31440;48.584;13.460;2023-05-01T05:59:35;96628.34;;;11.72;58.15
45731;BME280;31440;48.584;13.460;2023-05-01T06:02:39;96626.59;;;11.52;59.07
45731;BME280;31440;48.584;13.460;2023-05-01T06:05:45;96623.78;;;11.77;58.89
45731;BME280;31440;48.584;13.460;2023-05-01T06:08:50;96617.72;;;11.97;58.88
45731;BME280;31440;48.584;13.460;2023-05-01T06:11:55;96624.00;;;12.12;57.57
45731;BME280;31440;48.584;13.460;2023-05-01T06:15:01;96609.66;;;12.24;55.23
45731;BME280;31440;48.584;13.460;2023-05-01T06:18:07;96613.72;;;12.29;56.41
45731;BME280;31440;48.584;13.460;2023-05-01T06:21:12;96611.63;;;12.75;53.50
45731;BME280;31440;48.584;13.460;2023-05-01T06:24:17;96608.13;;;12.93;53.06
45731;BME280;31440;48.584;13.460;2023-05-01T06:27:24;96615.41;;;12.86;52.48
45731;BME280;31440;48.584;13.460;2023-05-01T06:30:29;96611.00;;;13.06;52.36
45731;BME280;31440;48.584;13.460;2023-05-01T06:33:34;96612.59;;;13.08;53.01
45731;BME280;31440;48.584;13.460;2023-05-01T06:36:49;96611.72;;;13.27;52.50
45731;BME280;31440;48.584;13.460;2023-05-01T06:39:54;96613.34;;;13.81;49.80
45731;BME280;31440;48.584;13.460;2023-05-01T06:46:05;96606.69;;;13.58;52.27
45731;BME280;31440;48.584;13.460;2023-05-01T06:49:10;96608.09;;;13.48;49.99
45731;BME280;31440;48.584;13.460;2023-05-01T06:52:15;96606.69;;;13.41;51.65
45731;BME280;31440;48.584;13.460;2023-05-01T06:55:20;96604.13;;;13.91;50.86
45731;BME280;31440;48.584;13.460;2023-05-01T06:58:24;96606.09;;;14.36;54.74
45731;BME280;31440;48.584;13.460;2023-05-01T07:01:29;96607.25;;;14.46;51.57
45731;BME280;31440;48.584;13.460;2023-05-01T07:04:38;96586.88;;;14.37;49.35
45731;BME280;31440;48.584;13.460;2023-05-01T07:07:42;96606.28;;;14.80;50.52
45731;BME280;31440;48.584;13.460;2023-05-01T07:11:01;96599.63;;;15.06;48.96
45731;BME280;31440;48.584;13.460;2023-05-01T07:14:05;96595.53;;;14.71;49.19
45731;BME280;31440;48.584;13.460;2023-05-01T07:17:10;96598.66;;;15.23;48.85
45731;BME280;31440;48.584;13.460;2023-05-01T07:20:14;96595.00;;;15.11;49.05
45731;BME280;31440;48.584;13.460;2023-05-01T07:23:20;96591.84;;;15.20;51.04
45731;BME280;31440;48.584;13.460;2023-05-01T07:26:26;96583.56;;;15.28;49.83
45731;BME280;31440;48.584;13.460;2023-05-01T07:29:31;96576.59;;;15.43;47.49
45731;BME280;31440;48.584;13.460;2023-05-01T07:32:35;96579.59;;;14.91;46.70
45731;BME280;31440;48.584;13.460;2023-05-01T07:35:41;96585.03;;;15.02;49.79
45731;BME280;31440;48.584;13.460;2023-05-01T07:38:47;96577.53;;;15.12;47.55
45731;BME280;31440;48.584;13.460;2023-05-01T07:41:51;96576.94;;;15.07;48.03
45731;BME280;31440;48.584;13.460;2023-05-01T07:44:56;96577.63;;;15.70;47.95
45731;BME280;31440;48.584;13.460;2023-05-01T07:48:00;96537.69;;;15.66;47.11
45731;BME280;31440;48.584;13.460;2023-05-01T07:51:05;96583.06;;;16.52;45.96
45731;BME280;31440;48.584;13.460;2023-05-01T07:54:09;96580.50;;;17.46;46.37
45731;BME280;31440;48.584;13.460;2023-05-01T07:57:14;96572.56;;;17.08;45.48
45731;BME280;31440;48.584;13.460;2023-05-01T08:00:18;96572.97;;;17.41;46.68
45731;BME280;31440;48.584;13.460;2023-05-01T08:03:23;96582.97;;;17.22;45.07
45731;BME280;31440;48.584;13.460;2023-05-01T08:06:29;96559.78;;;17.28;43.54
45731;BME280;31440;48.584;13.460;2023-05-01T08:09:33;96576.09;;;17.86;45.27
45731;BME280;31440;48.584;13.460;2023-05-01T08:12:38;96577.75;;;18.25;45.99
45731;BME280;31440;48.584;13.460;2023-05-01T08:18:48;96575.63;;;18.55;42.32
45731;BME280;31440;48.584;13.460;2023-05-01T08:21:53;96562.91;;;18.62;41.47
45731;BME280;31440;48.584;13.460;2023-05-01T08:24:57;96565.84;;;19.18;41.60
45731;BME280;31440;48.584;13.460;2023-05-01T08:28:02;96563.47;;;19.26;42.70
45731;BME280;31440;48.584;13.460;2023-05-01T08:31:07;96560.03;;;19.01;42.40
45731;BME280;31440;48.584;13.460;2023-05-01T08:34:11;96554.63;;;19.39;41.42
45731;BME280;31440;48.584;13.460;2023-05-01T08:37:16;96558.69;;;19.20;41.12
45731;BME280;31440;48.584;13.460;2023-05-01T08:40:22;96555.09;;;19.44;38.34
45731;BME280;31440;48.584;13.460;2023-05-01T08:43:29;96564.63;;;19.80;39.33
45731;BME280;31440;48.584;13.460;2023-05-01T08:46:43;96552.91;;;19.85;41.14
45731;BME280;31440;48.584;13.460;2023-05-01T08:49:51;96556.47;;;20.41;38.52
45731;BME280;31440;48.584;13.460;2023-05-01T08:52:56;96545.91;;;21.70;39.71
45731;BME280;31440;48.584;13.460;2023-05-01T08:56:05;96539.81;;;21.59;39.51
45731;BME280;31440;48.584;13.460;2023-05-01T08:59:12;96534.88;;;21.65;36.26
45731;BME280;31440;48.584;13.460;2023-05-01T09:02:18;96536.94;;;21.62;39.29
45731;BME280;31440;48.584;13.460;2023-05-01T09:05:25;96544.00;;;21.40;37.83
45731;BME280;31440;48.584;13.460;2023-05-01T09:08:30;96531.25;;;22.38;38.42
45731;BME280;31440;48.584;13.460;2023-05-01T09:11:35;96527.53;;;22.10;36.14
45731;BME280;31440;48.584;13.460;2023-05-01T09:14:40;96531.16;;;22.49;37.39
45731;BME280;31440;48.584;13.460;2023-05-01T09:17:44;96533.81;;;22.19;34.25
45731;BME280;31440;48.584;13.460;2023-05-01T09:20:49;96525.41;;;21.63;35.81
45731;BME280;31440;48.584;13.460;2023-05-01T09:23:53;96491.28;;;22.32;35.13
45731;BME280;31440;48.584;13.460;2023-05-01T09:26:58;96521.47;;;22.60;34.30
45731;BME280;31440;48.584;13.460;2023-05-01T09:30:06;96516.94;;;22.91;35.78
45731;BME280;31440;48.584;13.460;2023-05-01T09:33:13;96518.78;;;23.38;34.16
45731;BME280;31440;48.584;13.460;2023-05-01T09:36:18;96515.41;;;23.94;34.63
45731;BME280;31440;48.584;13.460;2023-05-01T09:39:23;96517.41;;;24.84;36.14
45731;BME280;31440;48.584;13.460;2023-05-01T09:42:29;96519.06;;;23.64;36.19
45731;BME280;31440;48.584;13.460;2023-05-01T09:45:33;96521.63;;;22.58;34.21
45731;BME280;31440;48.584;13.460;2023-05-01T09:48:39;96524.84;;;22.71;39.22
45731;BME280;31440;48.584;13.460;2023-05-01T09:51:44;96516.91;;;22.62;36.09
45731;BME280;31440;48.584;13.460;2023-05-01T09:57:54;96517.56;;;23.52;32.20
45731;BME280;31440;48.584;13.460;2023-05-01T10:00:59;96514.03;;;24.64;35.50
45731;BME280;31440;48.584;13.460;2023-05-01T10:04:04;96506.75;;;23.82;31.94
45731;BME280;31440;48.584;13.460;2023-05-01T10:07:12;96506.69;;;23.26;35.02
45731;BME280;31440;48.584;13.460;2023-05-01T10:10:19;96509.63;;;24.08;36.05
45731;BME280;31440;48.584;13.460;2023-05-01T10:13:24;96503.69;;;23.87;34.56
45731;BME280;31440;48.584;13.460;2023-05-01T10:16:29;96512.00;;;23.36;35.36
45731;BME280;31440;48.584;13.460;2023-05-01T10:19:34;96505.41;;;23.59;33.96
45731;BME280;31440;48.584;13.460;2023-05-01T10:22:39;96506.25;;;23.50;34.33
45731;BME280;31440;48.584;13.460;2023-05-01T10:25:44;96503.22;;;24.11;34.07
45731;BME280;31440;48.584;13.460;2023-05-01T10:28:51;96497.47;;;23.40;32.77
45731;BME280;31440;48.584;13.460;2023-05-01T10:31:57;96492.84;;;23.03;33.13
45731;BME280;31440;48.584;13.460;2023-05-01T10:35:14;96495.53;;;24.17;33.17
45731;BME280;31440;48.584;13.460;2023-05-01T10:38:25;96485.94;;;24.34;32.38
45731;BME280;31440;48.584;13.460;2023-05-01T10:45:26;96483.59;;;25.83;34.36
45731;BME280;31440;48.584;13.460;2023-05-01T10:55:37;96487.94;;;25.40;34.65
45731;BME280;31440;48.584;13.460;2023-05-01T11:01:48;96481.81;;;24.49;30.60
45731;BME280;31440;48.584;13.460;2023-05-01T11:08:33;96480.00;;;24.50;30.87
45731;BME280;31440;48.584;13.460;2023-05-01T11:18:01;96475.50;;;24.60;32.91
45731;BME280;31440;48.584;13.460;2023-05-01T11:21:07;96471.91;;;23.77;31.44
45731;BME280;31440;48.584;13.460;2023-05-01T11:24:12;96464.25;;;25.11;30.48
45731;BME280;31440;48.584;13.460;2023-05-01T11:27:16;96462.78;;;24.99;31.51
45731;BME280;31440;48.584;13.460;2023-05-01T11:30:21;96467.75;;;25.12;31.91
45731;BME280;31440;48.584;13.460;2023-05-01T11:33:26;96458.13;;;25.11;31.17
45731;BME280;31440;48.584;13.460;2023-05-01T11:36:49;96456.97;;;25.13;32.24
45731;BME280;31440;48.584;13.460;2023-05-01T11:39:54;96460.94;;;24.37;29.69
45731;BME280;31440;48.584;13.460;2023-05-01T11:46:04;96451.44;;;24.44;29.93
45731;BME280;31440;48.584;13.460;2023-05-01T11:49:10;96457.69;;;24.25;31.44
45731;BME280;31440;48.584;13.460;2023-05-01T11:52:14;96452.50;;;24.51;31.58
45731;BME280;31440;48.584;13.460;2023-05-01T11:55:20;96457.13;;;25.12;31.43
45731;BME280;31440;48.584;13.460;2023-05-01T11:58:32;96450.84;;;25.13;31.66
45731;BME280;31440;48.584;13.460;2023-05-01T12:01:38;96448.50;;;26.05;30.52
45731;BME280;31440;48.584;13.460;2023-05-01T12:04:43;96455.88;;;25.59;30.57
45731;BME280;31440;48.584;13.460;2023-05-01T12:07:48;96456.72;;;23.70;31.21
45731;BME280;31440;48.584;13.460;2023-05-01T12:10:55;96444.81;;;25.46;30.41
45731;BME280;31440;48.584;13.460;2023-05-01T12:14:01;96438.66;;;25.72;28.44
45731;BME280;31440;48.584;13.460;2023-05-01T12:17:06;96442.81;;;25.66;28.85
45731;BME280;31440;48.584;13.460;2023-05-01T12:20:13;96438.72;;;26.48;29.93
45731;BME280;31440;48.584;13.460;2023-05-01T12:23:39;96438.44;;;26.59;28.55
45731;BME280;31440;48.584;13.460;2023-05-01T12:26:44;96443.44;;;25.24;31.63
45731;BME280;31440;48.584;13.460;2023-05-01T12:29:49;96437.84;;;25.10;32.09
45731;BME280;31440;48.584;13.460;2023-05-01T12:32:57;96426.81;;;26.60;30.67
45731;BME280;31440;48.584;13.460;2023-05-01T12:36:09;96428.06;;;26.40;31.09
45731;BME280;31440;48.584;13.460;2023-05-01T12:39:16;96434.38;;;25.53;30.98
45731;BME280;31440;48.584;13.460;2023-05-01T12:42:21;96434.53;;;27.04;31.21
45731;BME280;31440;48.584;13.460;2023-05-01T12:45:25;96437.19;;;26.95;32.96
45731;BME280;31440;48.584;13.460;2023-05-01T12:48:30;96427.28;;;26.55;31.55
45731;BME280;31440;48.584;13.460;2023-05-01T12:51:37;96432.94;;;24.79;31.72
45731;BME280;31440;48.584;13.460;2023-05-01T12:54:43;96423.88;;;25.69;32.63
45731;BME280;31440;48.584;13.460;2023-05-01T12:57:52;96430.16;;;25.42;31.38
45731;BME280;31440;48.584;13.460;2023-05-01T13:00:57;96429.34;;;25.24;34.25
45731;BME280;31440;48.584;13.460;2023-05-01T13:04:01;96428.03;;;25.46;32.01
45731;BME280;31440;48.584;13.460;2023-05-01T13:07:14;96423.75;;;24.91;33.14
45731;BME280;31440;48.584;13.460;2023-05-01T13:10:29;96418.97;;;25.13;34.48
45731;BME280;31440;48.584;13.460;2023-05-01T13:13:34;96413.72;;;24.85;33.90
45731;BME280;31440;48.584;13.460;2023-05-01T13:16:45;96416.06;;;26.36;35.77
45731;BME280;31440;48.584;13.460;2023-05-01T13:19:58;96413.25;;;25.95;33.80
45731;BME280;31440;48.584;13.460;2023-05-01T13:23:11;96415.09;;;24.44;35.76
45731;BME280;31440;48.584;13.460;2023-05-01T13:26:25;96412.59;;;23.88;35.33
45731;BME280;31440;48.584;13.460;2023-05-01T13:29:31;96412.28;;;24.01;34.89
45731;BME280;31440;48.584;13.460;2023-05-01T13:32:39;96416.38;;;22.91;37.50
45731;BME280;31440;48.584;13.460;2023-05-01T13:35:44;96420.53;;;22.83;37.71
45731;BME280;31440;48.584;13.460;2023-05-01T13:38:54;96389.63;;;22.84;36.99
45731;BME280;31440;48.584;13.460;2023-05-01T13:42:01;96415.94;;;22.66;38.66
45731;BME280;31440;48.584;13.460;2023-05-01T13:45:07;96415.56;;;22.80;37.40
45731;BME280;31440;48.584;13.460;2023-05-01T13:48:15;96419.19;;;22.30;38.57
45731;BME280;31440;48.584;13.460;2023-05-01T13:51:23;96416.25;;;22.73;38.70
45731;BME280;31440;48.584;13.460;2023-05-01T13:54:28;96412.59;;;23.22;38.05
45731;BME280;31440;48.584;13.460;2023-05-01T13:57:37;96412.91;;;23.00;38.63
45731;BME280;31440;48.584;13.460;2023-05-01T14:00:44;96406.38;;;22.15;40.25
45731;BME280;31440;48.584;13.460;2023-05-01T14:03:49;96393.19;;;22.25;39.76
45731;BME280;31440;48.584;13.460;2023-05-01T14:10:00;96399.19;;;21.57;41.29
45731;BME280;31440;48.584;13.460;2023-05-01T14:13:04;96403.44;;;21.48;42.01
45731;BME280;31440;48.584;13.460;2023-05-01T14:16:22;96397.13;;;20.98;42.47
45731;BME280;31440;48.584;13.460;2023-05-01T14:25:47;96406.09;;;22.78;41.22
45731;BME280;31440;48.584;13.460;2023-05-01T14:28:52;96401.47;;;21.71;42.03
45731;BME280;31440;48.584;13.460;2023-05-01T14:32:01;96396.59;;;22.66;42.68
45731;BME280;31440;48.584;13.460;2023-05-01T14:35:08;96394.09;;;23.12;42.12
45731;BME280;31440;48.584;13.460;2023-05-01T14:41:20;96396.72;;;21.44;41.17
45731;BME280;31440;48.584;13.460;2023-05-01T14:44:26;96401.72;;;21.37;41.90
45731;BME280;31440;48.584;13.460;2023-05-01T14:47:34;96403.50;;;21.37;41.41
45731;BME280;31440;48.584;13.460;2023-05-01T14:50:38;96406.38;;;20.60;43.13
45731;BME280;31440;48.584;13.460;2023-05-01T14:53:46;96376.69;;;21.41;41.07
45731;BME280;31440;48.584;13.460;2023-05-01T14:56:50;96396.16;;;23.09;39.98
45731;BME280;31440;48.584;13.460;2023-05-01T14:59:55;96392.56;;;22.62;40.47
45731;BME280;31440;48.584;13.460;2023-05-01T15:03:00;96399.78;;;21.70;41.95
45731;BME280;31440;48.584;13.460;2023-05-01T15:06:07;96367.31;;;20.65;43.47
45731;BME280;31440;48.584;13.460;2023-05-01T15:09:12;96394.16;;;21.84;41.84
45731;BME280;31440;48.584;13.460;2023-05-01T15:12:18;96390.09;;;22.10;41.64
45731;BME280;31440;48.584;13.460;2023-05-01T15:15:23;96375.31;;;21.16;43.54
45731;BME280;31440;48.584;13.460;2023-05-01T15:18:28;96391.16;;;22.67;42.52
45731;BME280;31440;48.584;13.460;2023-05-01T15:21:38;96400.63;;;22.01;42.42
45731;BME280;31440;48.584;13.460;2023-05-01T15:24:44;96396.31;;;20.65;43.94
45731;BME280;31440;48.584;13.460;2023-05-01T15:27:49;96398.50;;;21.13;44.95
45731;BME280;31440;48.584;13.460;2023-05-01T15:30:55;96391.28;;;21.36;42.92
45731;BME280;31440;48.584;13.460;2023-05-01T15:34:00;96392.75;;;21.29;42.57
45731;BME280;31440;48.584;13.460;2023-05-01T15:37:06;96394.53;;;21.49;43.68
45731;BME280;31440;48.584;13.460;2023-05-01T15:43:17;96397.28;;;21.17;45.96
45731;BME280;31440;48.584;13.460;2023-05-01T15:46:22;96397.63;;;20.92;44.07
45731;BME280;31440;48.584;13.460;2023-05-01T15:49:28;96398.25;;;20.52;43.82
45731;BME280;31440;48.584;13.460;2023-05-01T15:52:33;96396.78;;;21.54;43.09
45731;BME280;31440;48.584;13.460;2023-05-01T15:58:45;96398.03;;;21.08;45.58
45731;BME280;31440;48.584;13.460;2023-05-01T16:01:51;96395.53;;;21.27;46.22
45731;BME280;31440;48.584;13.460;2023-05-01T16:04:57;96404.84;;;20.58;46.88
45731;BME280;31440;48.584;13.460;2023-05-01T16:08:02;96403.09;;;20.36;47.16
45731;BME280;31440;48.584;13.460;2023-05-01T16:11:09;96415.09;;;20.18;49.02
45731;BME280;31440;48.584;13.460;2023-05-01T16:14:16;96411.31;;;19.88;48.83
45731;BME280;31440;48.584;13.460;2023-05-01T16:17:21;96410.81;;;19.61;50.28
45731;BME280;31440;48.584;13.460;2023-05-01T16:20:29;96421.16;;;19.29;50.43
45731;BME280;31440;48.584;13.460;2023-05-01T16:23:38;96420.72;;;18.65;51.47
45731;BME280;31440;48.584;13.460;2023-05-01T16:26:43;96426.84;;;18.29;54.29
45731;BME280;31440;48.584;13.460;2023-05-01T16:29:49;96388.91;;;18.57;52.53
45731;BME280;31440;48.584;13.460;2023-05-01T16:32:53;96436.88;;;18.48;52.72
45731;BME280;31440;48.584;13.460;2023-05-01T16:35:58;96437.00;;;18.70;52.35
45731;BME280;31440;48.584;13.460;2023-05-01T16:39:03;96428.16;;;18.47;54.12
45731;BME280;31440;48.584;13.460;2023-05-01T16:42:11;96437.06;;;18.21;53.86
45731;BME280;31440;48.584;13.460;2023-05-01T16:45:15;96447.38;;;17.62;56.15
45731;BME280;31440;48.584;13.460;2023-05-01T16:48:22;96453.47;;;17.62;56.83
45731;BME280;31440;48.584;13.460;2023-05-01T16:51:27;96447.88;;;17.42;58.19
45731;BME280;31440;48.584;13.460;2023-05-01T16:54:32;96444.72;;;17.36;59.45
45731;BME280;31440;48.584;13.460;2023-05-01T16:57:39;96449.53;;;17.55;59.11
45731;BME280;31440;48.584;13.460;2023-05-01T17:00:47;96462.97;;;17.25;58.65
45731;BME280;31440;48.584;13.460;2023-05-01T17:03:52;96466.72;;;17.47;59.64
45731;BME280;31440;48.584;13.460;2023-05-01T17:06:56;96471.78;;;17.50;58.20
45731;BME280;31440;48.584;13.460;2023-05-01T17:10:01;96453.16;;;17.02;59.11
45731;BME280;31440;48.584;13.460;2023-05-01T17:13:07;96486.97;;;17.19;59.06
45731;BME280;31440;48.584;13.460;2023-05-01T17:16:11;96488.78;;;16.92;60.32
45731;BME280;31440;48.584;13.460;2023-05-01T17:19:16;96488.88;;;16.63;61.01
45731;BME280;31440;48.584;13.460;2023-05-01T17:22:21;96486.38;;;16.89;60.80
45731;BME280;31440;48.584;13.460;2023-05-01T17:25:26;96493.38;;;16.20;64.35
45731;BME280;31440;48.584;13.460;2023-05-01T17:28:31;96495.94;;;16.49;63.57
45731;BME280;31440;48.584;13.460;2023-05-01T17:31:35;96499.19;;;16.11;66.22
45731;BME280;31440;48.584;13.460;2023-05-01T17:37:46;96504.16;;;15.73;69.01
45731;BME280;31440;48.584;13.460;2023-05-01T17:40:51;96509.50;;;15.72;70.98